sensor_id;sensor_type;location;lat;lon;timestamp;P1;durP1;ratioP1;P2;durP2;ratioP2
14760;SDS011;7472;45.396;5.272;2022-10-31T00:00:20;23.50;;;11.18;;
14760;SDS011;7472;45.396;5.272;2022-10-31T00:02:47;21.58;;;10.65;;
14760;SDS011;7472;45.396;5.272;2022-10-31T00:05:15;20.23;;;9.98;;
14760;SDS011;7472;45.396;5.272;2022-10-31T00:07:42;24.10;;;11.32;;
14760;SDS011;7472;45.396;5.272;2022-10-31T00:10:09;31.73;;;12.35;;
14760;SDS011;7472;45.396;5.272;2022-10-31T00:12:37;22.08;;;11.05;;
14760;SDS011;7472;45.396;5.272;2022-10-31T00:15:04;23.10;;;11.05;;
14760;SDS011;7472;45.396;5.272;2022-10-31T00:17:35;23.58;;;11.38;;
14760;SDS011;7472;45.396;5.272;2022-10-31T00:20:03;17.17;;;11.10;;
14760;SDS011;7472;45.396;5.272;2022-10-31T00:22:30;21.02;;;11.00;;
14760;SDS011;7472;45.396;5.272;2022-10-31T00:24:58;21.35;;;10.30;;
14760;SDS011;7472;45.396;5.272;2022-10-31T00:27:25;22.17;;;11.05;;
14760;SDS011;7472;45.396;5.272;2022-10-31T00:29:53;20.23;;;10.90;;
14760;SDS011;7472;45.396;5.272;2022-10-31T00:32:20;20.40;;;10.15;;
14760;SDS011;7472;45.396;5.272;2022-10-31T00:34:49;23.75;;;10.25;;
14760;SDS011;7472;45.396;5.272;2022-10-31T00:37:16;20.20;;;11.13;;
14760;SDS011;7472;45.396;5.272;2022-10-31T00:39:44;23.83;;;10.80;;
14760;SDS011;7472;45.396;5.272;2022-10-31T00:42:14;25.10;;;10.80;;
14760;SDS011;7472;45.396;5.272;2022-10-31T00:44:41;21.40;;;11.50;;
14760;SDS011;7472;45.396;5.272;2022-10-31T00:47:08;16.60;;;11.15;;
14760;SDS011;7472;45.396;5.272;2022-10-31T00:49:36;20.92;;;10.77;;
14760;SDS011;7472;45.396;5.272;2022-10-31T00:52:05;26.33;;;11.00;;
14760;SDS011;7472;45.396;5.272;2022-10-31T00:54:32;22.77;;;11.35;;
14760;SDS011;7472;45.396;5.272;2022-10-31T00:57:00;20.30;;;9.98;;
14760;SDS011;7472;45.396;5.272;2022-10-31T00:59:27;25.05;;;10.77;;
14760;SDS011;7472;45.396;5.272;2022-10-31T01:01:54;22.15;;;10.02;;
14760;SDS011;7472;45.396;5.272;2022-10-31T01:04:22;23.85;;;10.25;;
14760;SDS011;7472;45.396;5.272;2022-10-31T01:06:49;21.88;;;9.15;;
14760;SDS011;7472;45.396;5.272;2022-10-31T01:09:18;18.80;;;9.23;;
14760;SDS011;7472;45.396;5.272;2022-10-31T01:11:46;19.00;;;9.13;;
14760;SDS011;7472;45.396;5.272;2022-10-31T01:14:13;14.40;;;8.35;;
14760;SDS011;7472;45.396;5.272;2022-10-31T01:16:40;16.27;;;9.52;;
14760;SDS011;7472;45.396;5.272;2022-10-31T01:19:08;14.30;;;8.70;;
14760;SDS011;7472;45.396;5.272;2022-10-31T01:21:35;16.67;;;8.10;;
14760;SDS011;7472;45.396;5.272;2022-10-31T01:24:03;16.95;;;8.50;;
14760;SDS011;7472;45.396;5.272;2022-10-31T01:26:32;19.95;;;9.65;;
14760;SDS011;7472;45.396;5.272;2022-10-31T01:29:00;17.83;;;9.48;;
14760;SDS011;7472;45.396;5.272;2022-10-31T01:31:28;14.73;;;8.65;;
14760;SDS011;7472;45.396;5.272;2022-10-31T01:33:57;18.75;;;8.73;;
14760;SDS011;7472;45.396;5.272;2022-10-31T01:36:26;26.10;;;9.13;;
14760;SDS011;7472;45.396;5.272;2022-10-31T01:38:55;15.07;;;8.90;;
14760;SDS011;7472;45.396;5.272;2022-10-31T01:41:23;14.57;;;8.02;;
14760;SDS011;7472;45.396;5.272;2022-10-31T01:43:53;20.48;;;8.68;;
14760;SDS011;7472;45.396;5.272;2022-10-31T01:46:22;18.98;;;8.80;;
14760;SDS011;7472;45.396;5.272;2022-10-31T01:48:50;18.90;;;8.18;;
14760;SDS011;7472;45.396;5.272;2022-10-31T01:51:18;17.52;;;9.00;;
14760;SDS011;7472;45.396;5.272;2022-10-31T01:53:47;20.55;;;9.68;;
14760;SDS011;7472;45.396;5.272;2022-10-31T01:56:16;24.92;;;9.75;;
14760;SDS011;7472;45.396;5.272;2022-10-31T01:58:45;18.83;;;9.52;;
14760;SDS011;7472;45.396;5.272;2022-10-31T02:01:14;22.48;;;9.93;;
14760;SDS011;7472;45.396;5.272;2022-10-31T02:03:41;17.83;;;9.85;;
14760;SDS011;7472;45.396;5.272;2022-10-31T02:06:10;17.25;;;9.52;;
14760;SDS011;7472;45.396;5.272;2022-10-31T02:08:40;20.88;;;9.80;;
14760;SDS011;7472;45.396;5.272;2022-10-31T02:11:09;21.77;;;9.57;;
14760;SDS011;7472;45.396;5.272;2022-10-31T02:13:37;19.13;;;9.73;;
14760;SDS011;7472;45.396;5.272;2022-10-31T02:16:05;14.30;;;9.30;;
14760;SDS011;7472;45.396;5.272;2022-10-31T02:18:34;27.30;;;11.90;;
14760;SDS011;7472;45.396;5.272;2022-10-31T02:21:03;20.30;;;10.40;;
14760;SDS011;7472;45.396;5.272;2022-10-31T02:26:45;18.67;;;8.93;;
14760;SDS011;7472;45.396;5.272;2022-10-31T02:29:23;17.05;;;9.63;;
14760;SDS011;7472;45.396;5.272;2022-10-31T02:32:00;16.75;;;9.20;;
14760;SDS011;7472;45.396;5.272;2022-10-31T02:34:30;16.55;;;9.48;;
14760;SDS011;7472;45.396;5.272;2022-10-31T02:37:01;23.13;;;10.13;;
14760;SDS011;7472;45.396;5.272;2022-10-31T02:39:31;14.00;;;8.88;;
14760;SDS011;7472;45.396;5.272;2022-10-31T02:42:03;20.27;;;9.98;;
14760;SDS011;7472;45.396;5.272;2022-10-31T02:44:34;17.40;;;10.20;;
14760;SDS011;7472;45.396;5.272;2022-10-31T02:47:05;22.00;;;9.23;;
14760;SDS011;7472;45.396;5.272;2022-10-31T02:49:34;19.35;;;10.00;;
14760;SDS011;7472;45.396;5.272;2022-10-31T02:52:02;17.35;;;9.50;;
14760;SDS011;7472;45.396;5.272;2022-10-31T02:54:39;21.02;;;10.93;;
14760;SDS011;7472;45.396;5.272;2022-10-31T02:57:07;19.52;;;10.38;;
14760;SDS011;7472;45.396;5.272;2022-10-31T02:59:35;16.83;;;10.13;;
14760;SDS011;7472;45.396;5.272;2022-10-31T03:02:08;25.48;;;10.30;;
14760;SDS011;7472;45.396;5.272;2022-10-31T03:04:43;23.45;;;9.98;;
14760;SDS011;7472;45.396;5.272;2022-10-31T03:07:15;16.80;;;11.10;;
14760;SDS011;7472;45.396;5.272;2022-10-31T03:09:46;20.92;;;9.73;;
14760;SDS011;7472;45.396;5.272;2022-10-31T03:12:20;12.80;;;9.60;;
14760;SDS011;7472;45.396;5.272;2022-10-31T03:14:51;19.08;;;10.70;;
14760;SDS011;7472;45.396;5.272;2022-10-31T03:17:22;17.55;;;10.80;;
14760;SDS011;7472;45.396;5.272;2022-10-31T03:19:52;22.63;;;10.48;;
14760;SDS011;7472;45.396;5.272;2022-10-31T03:22:20;23.58;;;11.00;;
14760;SDS011;7472;45.396;5.272;2022-10-31T03:24:49;16.23;;;10.55;;
14760;SDS011;7472;45.396;5.272;2022-10-31T03:27:18;18.92;;;10.77;;
14760;SDS011;7472;45.396;5.272;2022-10-31T03:29:46;20.17;;;10.60;;
14760;SDS011;7472;45.396;5.272;2022-10-31T03:32:15;19.42;;;11.05;;
14760;SDS011;7472;45.396;5.272;2022-10-31T03:34:45;21.38;;;11.52;;
14760;SDS011;7472;45.396;5.272;2022-10-31T03:37:13;25.05;;;10.77;;
14760;SDS011;7472;45.396;5.272;2022-10-31T03:39:42;22.40;;;11.52;;
14760;SDS011;7472;45.396;5.272;2022-10-31T03:42:11;22.42;;;12.13;;
14760;SDS011;7472;45.396;5.272;2022-10-31T03:44:40;20.50;;;11.27;;
14760;SDS011;7472;45.396;5.272;2022-10-31T03:47:09;21.90;;;10.40;;
14760;SDS011;7472;45.396;5.272;2022-10-31T03:49:37;21.05;;;12.15;;
14760;SDS011;7472;45.396;5.272;2022-10-31T03:52:07;22.75;;;11.02;;
14760;SDS011;7472;45.396;5.272;2022-10-31T03:54:37;19.33;;;11.57;;
14760;SDS011;7472;45.396;5.272;2022-10-31T03:57:08;23.35;;;11.60;;
14760;SDS011;7472;45.396;5.272;2022-10-31T03:59:40;18.15;;;10.43;;
14760;SDS011;7472;45.396;5.272;2022-10-31T04:02:10;21.50;;;11.45;;
14760;SDS011;7472;45.396;5.272;2022-10-31T04:04:38;20.95;;;11.85;;
14760;SDS011;7472;45.396;5.272;2022-10-31T04:07:08;20.05;;;11.35;;
14760;SDS011;7472;45.396;5.272;2022-10-31T04:09:38;17.23;;;10.02;;
14760;SDS011;7472;45.396;5.272;2022-10-31T04:12:07;18.05;;;11.80;;
14760;SDS011;7472;45.396;5.272;2022-10-31T04:14:36;24.48;;;11.60;;
14760;SDS011;7472;45.396;5.272;2022-10-31T04:17:05;21.95;;;11.00;;
14760;SDS011;7472;45.396;5.272;2022-10-31T04:19:34;20.70;;;11.55;;
14760;SDS011;7472;45.396;5.272;2022-10-31T04:22:02;17.77;;;10.57;;
14760;SDS011;7472;45.396;5.272;2022-10-31T04:24:30;20.38;;;11.25;;
14760;SDS011;7472;45.396;5.272;2022-10-31T04:26:58;19.77;;;11.55;;
14760;SDS011;7472;45.396;5.272;2022-10-31T04:29:25;21.42;;;12.63;;
14760;SDS011;7472;45.396;5.272;2022-10-31T04:31:53;22.13;;;12.27;;
14760;SDS011;7472;45.396;5.272;2022-10-31T04:34:20;18.00;;;11.43;;
14760;SDS011;7472;45.396;5.272;2022-10-31T04:36:47;20.48;;;11.27;;
14760;SDS011;7472;45.396;5.272;2022-10-31T04:39:15;26.63;;;12.48;;
14760;SDS011;7472;45.396;5.272;2022-10-31T04:41:44;20.42;;;11.05;;
14760;SDS011;7472;45.396;5.272;2022-10-31T04:44:12;25.25;;;11.15;;
14760;SDS011;7472;45.396;5.272;2022-10-31T04:46:39;27.98;;;11.48;;
14760;SDS011;7472;45.396;5.272;2022-10-31T04:49:06;20.80;;;11.38;;
14760;SDS011;7472;45.396;5.272;2022-10-31T04:51:34;22.25;;;12.55;;
14760;SDS011;7472;45.396;5.272;2022-10-31T04:54:01;19.85;;;11.05;;
14760;SDS011;7472;45.396;5.272;2022-10-31T04:56:29;17.25;;;10.68;;
14760;SDS011;7472;45.396;5.272;2022-10-31T04:58:58;23.65;;;12.45;;
14760;SDS011;7472;45.396;5.272;2022-10-31T05:01:25;18.23;;;12.00;;
14760;SDS011;7472;45.396;5.272;2022-10-31T05:03:53;22.38;;;11.85;;
14760;SDS011;7472;45.396;5.272;2022-10-31T05:06:20;22.67;;;11.35;;
14760;SDS011;7472;45.396;5.272;2022-10-31T05:08:47;22.05;;;10.98;;
14760;SDS011;7472;45.396;5.272;2022-10-31T05:11:15;20.45;;;10.68;;
14760;SDS011;7472;45.396;5.272;2022-10-31T05:13:43;20.60;;;11.98;;
14760;SDS011;7472;45.396;5.272;2022-10-31T05:16:12;22.90;;;12.98;;
14760;SDS011;7472;45.396;5.272;2022-10-31T05:18:39;22.40;;;11.60;;
14760;SDS011;7472;45.396;5.272;2022-10-31T05:21:06;21.05;;;11.80;;
14760;SDS011;7472;45.396;5.272;2022-10-31T05:23:34;17.90;;;11.73;;
14760;SDS011;7472;45.396;5.272;2022-10-31T05:26:01;21.48;;;11.13;;
14760;SDS011;7472;45.396;5.272;2022-10-31T05:28:29;20.75;;;11.75;;
14760;SDS011;7472;45.396;5.272;2022-10-31T05:30:56;17.23;;;11.23;;
14760;SDS011;7472;45.396;5.272;2022-10-31T05:33:25;22.63;;;11.85;;
14760;SDS011;7472;45.396;5.272;2022-10-31T05:35:52;20.63;;;10.38;;
14760;SDS011;7472;45.396;5.272;2022-10-31T05:38:20;18.73;;;10.60;;
14760;SDS011;7472;45.396;5.272;2022-10-31T05:40:47;15.98;;;11.45;;
14760;SDS011;7472;45.396;5.272;2022-10-31T05:43:14;19.02;;;10.30;;
14760;SDS011;7472;45.396;5.272;2022-10-31T05:45:42;16.08;;;10.95;;
14760;SDS011;7472;45.396;5.272;2022-10-31T05:48:09;19.70;;;11.27;;
14760;SDS011;7472;45.396;5.272;2022-10-31T05:50:38;18.92;;;10.88;;
14760;SDS011;7472;45.396;5.272;2022-10-31T05:53:06;18.23;;;11.65;;
14760;SDS011;7472;45.396;5.272;2022-10-31T05:55:33;22.00;;;11.38;;
14760;SDS011;7472;45.396;5.272;2022-10-31T05:58:00;15.98;;;10.98;;
14760;SDS011;7472;45.396;5.272;2022-10-31T06:00:28;22.23;;;10.93;;
14760;SDS011;7472;45.396;5.272;2022-10-31T06:02:58;17.40;;;10.35;;
14760;SDS011;7472;45.396;5.272;2022-10-31T06:05:26;24.13;;;11.32;;
14760;SDS011;7472;45.396;5.272;2022-10-31T06:07:55;23.92;;;11.98;;
14760;SDS011;7472;45.396;5.272;2022-10-31T06:10:23;23.15;;;11.25;;
14760;SDS011;7472;45.396;5.272;2022-10-31T06:12:50;31.88;;;11.82;;
14760;SDS011;7472;45.396;5.272;2022-10-31T06:15:18;22.58;;;12.20;;
14760;SDS011;7472;45.396;5.272;2022-10-31T06:17:46;19.63;;;11.73;;
14760;SDS011;7472;45.396;5.272;2022-10-31T06:20:13;21.90;;;12.32;;
14760;SDS011;7472;45.396;5.272;2022-10-31T06:22:40;20.48;;;11.02;;
14760;SDS011;7472;45.396;5.272;2022-10-31T06:25:09;24.90;;;12.05;;
14760;SDS011;7472;45.396;5.272;2022-10-31T06:27:37;19.42;;;11.82;;
14760;SDS011;7472;45.396;5.272;2022-10-31T06:30:05;25.25;;;12.95;;
14760;SDS011;7472;45.396;5.272;2022-10-31T06:32:32;24.63;;;12.77;;
14760;SDS011;7472;45.396;5.272;2022-10-31T06:35:00;22.63;;;12.75;;
14760;SDS011;7472;45.396;5.272;2022-10-31T06:37:27;22.40;;;13.00;;
14760;SDS011;7472;45.396;5.272;2022-10-31T06:39:55;24.83;;;13.38;;
14760;SDS011;7472;45.396;5.272;2022-10-31T06:42:23;28.30;;;12.88;;
14760;SDS011;7472;45.396;5.272;2022-10-31T06:44:51;18.90;;;12.90;;
14760;SDS011;7472;45.396;5.272;2022-10-31T06:47:18;21.65;;;12.68;;
14760;SDS011;7472;45.396;5.272;2022-10-31T06:49:46;27.63;;;13.27;;
14760;SDS011;7472;45.396;5.272;2022-10-31T06:52:13;17.95;;;11.20;;
14760;SDS011;7472;45.396;5.272;2022-10-31T06:54:40;17.73;;;12.90;;
14760;SDS011;7472;45.396;5.272;2022-10-31T06:57:08;18.05;;;12.43;;
14760;SDS011;7472;45.396;5.272;2022-10-31T06:59:37;21.15;;;12.93;;
14760;SDS011;7472;45.396;5.272;2022-10-31T07:02:04;23.13;;;13.70;;
14760;SDS011;7472;45.396;5.272;2022-10-31T07:04:32;29.52;;;14.57;;
14760;SDS011;7472;45.396;5.272;2022-10-31T07:06:59;23.95;;;12.48;;
14760;SDS011;7472;45.396;5.272;2022-10-31T07:09:26;19.33;;;12.85;;
14760;SDS011;7472;45.396;5.272;2022-10-31T07:11:54;17.63;;;11.88;;
14760;SDS011;7472;45.396;5.272;2022-10-31T07:14:21;21.10;;;13.00;;
14760;SDS011;7472;45.396;5.272;2022-10-31T07:16:50;25.23;;;13.57;;
14760;SDS011;7472;45.396;5.272;2022-10-31T07:19:18;20.63;;;12.05;;
14760;SDS011;7472;45.396;5.272;2022-10-31T07:21:45;22.05;;;13.35;;
14760;SDS011;7472;45.396;5.272;2022-10-31T07:24:13;23.88;;;15.27;;
14760;SDS011;7472;45.396;5.272;2022-10-31T07:26:40;26.20;;;13.70;;
14760;SDS011;7472;45.396;5.272;2022-10-31T07:29:08;21.42;;;13.25;;
14760;SDS011;7472;45.396;5.272;2022-10-31T07:31:35;22.83;;;14.13;;
14760;SDS011;7472;45.396;5.272;2022-10-31T07:34:04;18.20;;;13.20;;
14760;SDS011;7472;45.396;5.272;2022-10-31T07:36:31;23.77;;;13.05;;
14760;SDS011;7472;45.396;5.272;2022-10-31T07:38:59;27.38;;;13.82;;
14760;SDS011;7472;45.396;5.272;2022-10-31T07:41:27;21.02;;;13.75;;
14760;SDS011;7472;45.396;5.272;2022-10-31T07:43:54;26.50;;;12.85;;
14760;SDS011;7472;45.396;5.272;2022-10-31T07:46:22;19.83;;;13.07;;
14760;SDS011;7472;45.396;5.272;2022-10-31T07:48:49;22.35;;;13.20;;
14760;SDS011;7472;45.396;5.272;2022-10-31T07:51:18;20.35;;;12.38;;
14760;SDS011;7472;45.396;5.272;2022-10-31T07:53:45;17.80;;;11.18;;
14760;SDS011;7472;45.396;5.272;2022-10-31T07:56:13;27.92;;;10.60;;
14760;SDS011;7472;45.396;5.272;2022-10-31T07:58:40;24.75;;;11.77;;
14760;SDS011;7472;45.396;5.272;2022-10-31T08:01:08;15.60;;;10.60;;
14760;SDS011;7472;45.396;5.272;2022-10-31T08:03:35;17.98;;;10.30;;
14760;SDS011;7472;45.396;5.272;2022-10-31T08:06:02;21.92;;;11.80;;
14760;SDS011;7472;45.396;5.272;2022-10-31T08:08:31;24.88;;;11.20;;
14760;SDS011;7472;45.396;5.272;2022-10-31T08:10:59;20.58;;;11.23;;
14760;SDS011;7472;45.396;5.272;2022-10-31T08:13:26;24.65;;;12.30;;
14760;SDS011;7472;45.396;5.272;2022-10-31T08:15:53;24.17;;;11.32;;
14760;SDS011;7472;45.396;5.272;2022-10-31T08:18:21;21.83;;;11.07;;
14760;SDS011;7472;45.396;5.272;2022-10-31T08:20:48;30.70;;;12.18;;
14760;SDS011;7472;45.396;5.272;2022-10-31T08:23:16;22.65;;;11.15;;
14760;SDS011;7472;45.396;5.272;2022-10-31T08:25:45;23.55;;;11.18;;
14760;SDS011;7472;45.396;5.272;2022-10-31T08:28:13;21.73;;;11.00;;
14760;SDS011;7472;45.396;5.272;2022-10-31T08:30:41;23.67;;;11.73;;
14760;SDS011;7472;45.396;5.272;2022-10-31T08:33:09;16.70;;;11.75;;
14760;SDS011;7472;45.396;5.272;2022-10-31T08:35:37;21.55;;;11.27;;
14760;SDS011;7472;45.396;5.272;2022-10-31T08:38:04;20.77;;;10.93;;
14760;SDS011;7472;45.396;5.272;2022-10-31T08:40:33;23.38;;;10.07;;
14760;SDS011;7472;45.396;5.272;2022-10-31T08:43:04;21.98;;;11.65;;
14760;SDS011;7472;45.396;5.272;2022-10-31T08:45:32;24.60;;;10.95;;
14760;SDS011;7472;45.396;5.272;2022-10-31T08:48:00;19.75;;;8.18;;
14760;SDS011;7472;45.396;5.272;2022-10-31T08:50:29;24.65;;;10.63;;
14760;SDS011;7472;45.396;5.272;2022-10-31T08:52:59;21.60;;;9.90;;
14760;SDS011;7472;45.396;5.272;2022-10-31T08:55:27;21.05;;;9.25;;
14760;SDS011;7472;45.396;5.272;2022-10-31T08:57:55;19.77;;;9.90;;
14760;SDS011;7472;45.396;5.272;2022-10-31T09:00:24;18.63;;;10.05;;
14760;SDS011;7472;45.396;5.272;2022-10-31T09:02:55;21.13;;;9.60;;
14760;SDS011;7472;45.396;5.272;2022-10-31T09:05:23;22.48;;;9.90;;
14760;SDS011;7472;45.396;5.272;2022-10-31T09:07:50;20.25;;;10.23;;
14760;SDS011;7472;45.396;5.272;2022-10-31T09:10:17;22.77;;;8.90;;
14760;SDS011;7472;45.396;5.272;2022-10-31T09:12:45;18.73;;;8.70;;
14760;SDS011;7472;45.396;5.272;2022-10-31T09:15:12;14.35;;;9.13;;
14760;SDS011;7472;45.396;5.272;2022-10-31T09:17:46;20.77;;;9.85;;
14760;SDS011;7472;45.396;5.272;2022-10-31T09:20:14;19.23;;;10.77;;
14760;SDS011;7472;45.396;5.272;2022-10-31T09:22:41;15.35;;;9.30;;
14760;SDS011;7472;45.396;5.272;2022-10-31T09:25:09;16.42;;;10.00;;
14760;SDS011;7472;45.396;5.272;2022-10-31T09:27:37;23.65;;;9.98;;
14760;SDS011;7472;45.396;5.272;2022-10-31T09:30:05;21.38;;;9.30;;
14760;SDS011;7472;45.396;5.272;2022-10-31T09:32:32;17.42;;;8.70;;
14760;SDS011;7472;45.396;5.272;2022-10-31T09:35:01;19.63;;;8.45;;
14760;SDS011;7472;45.396;5.272;2022-10-31T09:37:29;20.73;;;9.70;;
14760;SDS011;7472;45.396;5.272;2022-10-31T09:39:56;19.15;;;8.73;;
14760;SDS011;7472;45.396;5.272;2022-10-31T09:42:42;23.20;;;9.93;;
14760;SDS011;7472;45.396;5.272;2022-10-31T09:45:12;19.55;;;8.30;;
14760;SDS011;7472;45.396;5.272;2022-10-31T09:47:44;19.70;;;9.15;;
14760;SDS011;7472;45.396;5.272;2022-10-31T09:50:17;18.92;;;8.90;;
14760;SDS011;7472;45.396;5.272;2022-10-31T09:52:49;19.75;;;8.68;;
14760;SDS011;7472;45.396;5.272;2022-10-31T09:55:19;25.35;;;9.02;;
14760;SDS011;7472;45.396;5.272;2022-10-31T09:57:48;25.77;;;8.55;;
14760;SDS011;7472;45.396;5.272;2022-10-31T10:00:16;17.55;;;8.05;;
14760;SDS011;7472;45.396;5.272;2022-10-31T10:02:44;17.73;;;7.68;;
14760;SDS011;7472;45.396;5.272;2022-10-31T10:05:17;20.70;;;7.65;;
14760;SDS011;7472;45.396;5.272;2022-10-31T10:07:48;18.15;;;7.78;;
14760;SDS011;7472;45.396;5.272;2022-10-31T10:10:20;20.08;;;7.18;;
14760;SDS011;7472;45.396;5.272;2022-10-31T10:12:55;24.63;;;7.43;;
14760;SDS011;7472;45.396;5.272;2022-10-31T10:15:39;17.33;;;7.40;;
14760;SDS011;7472;45.396;5.272;2022-10-31T10:18:14;14.43;;;7.82;;
14760;SDS011;7472;45.396;5.272;2022-10-31T10:20:48;19.42;;;8.10;;
14760;SDS011;7472;45.396;5.272;2022-10-31T10:23:23;20.33;;;7.40;;
14760;SDS011;7472;45.396;5.272;2022-10-31T10:25:58;21.15;;;7.35;;
14760;SDS011;7472;45.396;5.272;2022-10-31T10:28:30;15.45;;;6.70;;
14760;SDS011;7472;45.396;5.272;2022-10-31T10:31:05;21.42;;;7.28;;
14760;SDS011;7472;45.396;5.272;2022-10-31T10:33:35;19.85;;;7.07;;
14760;SDS011;7472;45.396;5.272;2022-10-31T10:36:06;17.17;;;6.95;;
14760;SDS011;7472;45.396;5.272;2022-10-31T10:38:34;17.20;;;6.90;;
14760;SDS011;7472;45.396;5.272;2022-10-31T10:41:04;19.60;;;6.50;;
14760;SDS011;7472;45.396;5.272;2022-10-31T10:43:33;19.83;;;6.38;;
14760;SDS011;7472;45.396;5.272;2022-10-31T10:46:12;19.17;;;7.53;;
14760;SDS011;7472;45.396;5.272;2022-10-31T10:48:58;17.58;;;7.03;;
14760;SDS011;7472;45.396;5.272;2022-10-31T10:51:34;15.52;;;6.45;;
14760;SDS011;7472;45.396;5.272;2022-10-31T10:56:54;17.13;;;6.75;;
14760;SDS011;7472;45.396;5.272;2022-10-31T10:59:26;17.27;;;7.68;;
14760;SDS011;7472;45.396;5.272;2022-10-31T11:01:55;14.27;;;5.72;;
14760;SDS011;7472;45.396;5.272;2022-10-31T11:04:28;15.38;;;6.45;;
14760;SDS011;7472;45.396;5.272;2022-10-31T11:07:01;16.83;;;6.00;;
14760;SDS011;7472;45.396;5.272;2022-10-31T11:09:29;14.10;;;5.63;;
14760;SDS011;7472;45.396;5.272;2022-10-31T11:11:56;19.50;;;6.40;;
14760;SDS011;7472;45.396;5.272;2022-10-31T11:14:25;15.68;;;5.05;;
14760;SDS011;7472;45.396;5.272;2022-10-31T11:16:54;16.20;;;5.22;;
14760;SDS011;7472;45.396;5.272;2022-10-31T11:19:22;10.70;;;4.68;;
14760;SDS011;7472;45.396;5.272;2022-10-31T11:21:51;19.38;;;5.55;;
14760;SDS011;7472;45.396;5.272;2022-10-31T11:24:20;18.48;;;5.68;;
14760;SDS011;7472;45.396;5.272;2022-10-31T11:26:49;16.90;;;5.95;;
14760;SDS011;7472;45.396;5.272;2022-10-31T11:29:19;15.02;;;4.82;;
14760;SDS011;7472;45.396;5.272;2022-10-31T11:31:47;15.05;;;5.05;;
14760;SDS011;7472;45.396;5.272;2022-10-31T11:34:19;16.00;;;5.53;;
14760;SDS011;7472;45.396;5.272;2022-10-31T11:36:49;16.52;;;5.65;;
14760;SDS011;7472;45.396;5.272;2022-10-31T11:39:18;20.33;;;5.88;;
14760;SDS011;7472;45.396;5.272;2022-10-31T11:41:48;13.18;;;5.10;;
14760;SDS011;7472;45.396;5.272;2022-10-31T11:44:17;14.68;;;4.82;;
14760;SDS011;7472;45.396;5.272;2022-10-31T11:46:46;16.85;;;5.18;;
14760;SDS011;7472;45.396;5.272;2022-10-31T11:49:15;14.10;;;5.13;;
14760;SDS011;7472;45.396;5.272;2022-10-31T11:51:43;13.43;;;5.20;;
14760;SDS011;7472;45.396;5.272;2022-10-31T11:54:19;16.90;;;5.35;;
14760;SDS011;7472;45.396;5.272;2022-10-31T11:56:48;14.40;;;5.05;;
14760;SDS011;7472;45.396;5.272;2022-10-31T11:59:17;12.27;;;4.75;;
14760;SDS011;7472;45.396;5.272;2022-10-31T12:01:46;13.27;;;5.10;;
14760;SDS011;7472;45.396;5.272;2022-10-31T12:04:14;12.02;;;5.10;;
14760;SDS011;7472;45.396;5.272;2022-10-31T12:06:42;16.98;;;4.78;;
14760;SDS011;7472;45.396;5.272;2022-10-31T12:09:17;14.13;;;5.28;;
14760;SDS011;7472;45.396;5.272;2022-10-31T12:11:48;14.73;;;4.78;;
14760;SDS011;7472;45.396;5.272;2022-10-31T12:14:23;18.58;;;5.32;;
14760;SDS011;7472;45.396;5.272;2022-10-31T12:16:55;13.80;;;4.32;;
14760;SDS011;7472;45.396;5.272;2022-10-31T12:19:28;9.32;;;4.82;;
14760;SDS011;7472;45.396;5.272;2022-10-31T12:22:01;13.55;;;5.82;;
14760;SDS011;7472;45.396;5.272;2022-10-31T12:24:33;14.60;;;5.35;;
14760;SDS011;7472;45.396;5.272;2022-10-31T12:27:06;15.63;;;5.60;;
14760;SDS011;7472;45.396;5.272;2022-10-31T12:29:50;16.30;;;4.88;;
14760;SDS011;7472;45.396;5.272;2022-10-31T12:32:28;15.38;;;5.47;;
14760;SDS011;7472;45.396;5.272;2022-10-31T12:35:05;10.85;;;5.40;;
14760;SDS011;7472;45.396;5.272;2022-10-31T12:37:39;13.77;;;5.47;;
14760;SDS011;7472;45.396;5.272;2022-10-31T12:40:17;17.55;;;5.65;;
14760;SDS011;7472;45.396;5.272;2022-10-31T12:42:53;13.18;;;5.78;;
14760;SDS011;7472;45.396;5.272;2022-10-31T12:45:30;12.13;;;5.60;;
14760;SDS011;7472;45.396;5.272;2022-10-31T12:48:03;13.98;;;5.57;;
14760;SDS011;7472;45.396;5.272;2022-10-31T12:50:38;13.15;;;5.65;;
14760;SDS011;7472;45.396;5.272;2022-10-31T12:53:15;16.15;;;6.60;;
14760;SDS011;7472;45.396;5.272;2022-10-31T12:55:49;16.63;;;5.32;;
14760;SDS011;7472;45.396;5.272;2022-10-31T12:58:22;10.57;;;4.18;;
14760;SDS011;7472;45.396;5.272;2022-10-31T13:00:53;16.35;;;5.57;;
14760;SDS011;7472;45.396;5.272;2022-10-31T13:03:26;14.18;;;5.57;;
14760;SDS011;7472;45.396;5.272;2022-10-31T13:05:56;14.25;;;4.57;;
14760;SDS011;7472;45.396;5.272;2022-10-31T13:08:26;10.68;;;4.93;;
14760;SDS011;7472;45.396;5.272;2022-10-31T13:10:59;12.13;;;4.78;;
14760;SDS011;7472;45.396;5.272;2022-10-31T13:13:31;17.65;;;4.63;;
14760;SDS011;7472;45.396;5.272;2022-10-31T13:16:01;12.48;;;4.47;;
14760;SDS011;7472;45.396;5.272;2022-10-31T13:18:31;12.68;;;4.22;;
14760;SDS011;7472;45.396;5.272;2022-10-31T13:21:00;12.93;;;4.57;;
14760;SDS011;7472;45.396;5.272;2022-10-31T13:23:29;14.85;;;5.30;;
14760;SDS011;7472;45.396;5.272;2022-10-31T13:25:58;16.23;;;4.93;;
14760;SDS011;7472;45.396;5.272;2022-10-31T13:28:29;16.77;;;4.82;;
14760;SDS011;7472;45.396;5.272;2022-10-31T13:30:58;15.77;;;4.90;;
14760;SDS011;7472;45.396;5.272;2022-10-31T13:33:29;11.73;;;4.53;;
14760;SDS011;7472;45.396;5.272;2022-10-31T13:35:59;16.98;;;4.72;;
14760;SDS011;7472;45.396;5.272;2022-10-31T13:38:33;17.13;;;5.82;;
14760;SDS011;7472;45.396;5.272;2022-10-31T13:41:02;15.82;;;4.32;;
14760;SDS011;7472;45.396;5.272;2022-10-31T13:43:36;14.82;;;3.95;;
14760;SDS011;7472;45.396;5.272;2022-10-31T13:46:21;12.65;;;4.53;;
14760;SDS011;7472;45.396;5.272;2022-10-31T13:48:51;15.45;;;4.47;;
14760;SDS011;7472;45.396;5.272;2022-10-31T13:51:24;12.88;;;4.22;;
14760;SDS011;7472;45.396;5.272;2022-10-31T13:53:57;10.55;;;4.20;;
14760;SDS011;7472;45.396;5.272;2022-10-31T13:56:25;18.30;;;4.38;;
14760;SDS011;7472;45.396;5.272;2022-10-31T13:58:58;13.52;;;4.10;;
14760;SDS011;7472;45.396;5.272;2022-10-31T14:01:26;13.23;;;4.28;;
14760;SDS011;7472;45.396;5.272;2022-10-31T14:04:04;9.98;;;4.45;;
14760;SDS011;7472;45.396;5.272;2022-10-31T14:06:39;12.60;;;4.32;;
14760;SDS011;7472;45.396;5.272;2022-10-31T14:09:16;8.88;;;3.50;;
14760;SDS011;7472;45.396;5.272;2022-10-31T14:11:45;12.98;;;3.90;;
14760;SDS011;7472;45.396;5.272;2022-10-31T14:14:13;12.02;;;4.03;;
14760;SDS011;7472;45.396;5.272;2022-10-31T14:16:42;9.07;;;3.67;;
14760;SDS011;7472;45.396;5.272;2022-10-31T14:19:14;8.93;;;3.53;;
14760;SDS011;7472;45.396;5.272;2022-10-31T14:21:43;8.50;;;3.17;;
14760;SDS011;7472;45.396;5.272;2022-10-31T14:24:14;11.88;;;4.47;;
14760;SDS011;7472;45.396;5.272;2022-10-31T14:26:51;9.70;;;3.50;;
14760;SDS011;7472;45.396;5.272;2022-10-31T14:29:26;12.25;;;4.00;;
14760;SDS011;7472;45.396;5.272;2022-10-31T14:31:54;14.68;;;4.13;;
14760;SDS011;7472;45.396;5.272;2022-10-31T14:34:25;11.82;;;3.45;;
14760;SDS011;7472;45.396;5.272;2022-10-31T14:36:59;9.63;;;3.83;;
14760;SDS011;7472;45.396;5.272;2022-10-31T14:39:29;7.45;;;3.42;;
14760;SDS011;7472;45.396;5.272;2022-10-31T14:42:03;9.80;;;3.50;;
14760;SDS011;7472;45.396;5.272;2022-10-31T14:44:45;11.63;;;3.63;;
14760;SDS011;7472;45.396;5.272;2022-10-31T14:47:18;12.15;;;3.53;;
14760;SDS011;7472;45.396;5.272;2022-10-31T14:49:55;15.40;;;4.30;;
14760;SDS011;7472;45.396;5.272;2022-10-31T14:52:26;10.00;;;3.88;;
14760;SDS011;7472;45.396;5.272;2022-10-31T14:54:54;10.70;;;3.72;;
14760;SDS011;7472;45.396;5.272;2022-10-31T14:57:25;12.70;;;3.78;;
14760;SDS011;7472;45.396;5.272;2022-10-31T14:59:53;13.77;;;3.92;;